sensor_id;sensor_type;location;lat;lon;timestamp;temperature;humidity
19340;HTU21D;9804;52.350;6.684;2023-06-26T00:00:15;24.36;-6.00
19340;HTU21D;9804;52.350;6.684;2023-06-26T00:02:41;24.50;-6.00
19340;HTU21D;9804;52.350;6.684;2023-06-26T00:05:06;24.50;-6.00
19340;HTU21D;9804;52.350;6.684;2023-06-26T00:07:32;24.45;-6.00
19340;HTU21D;9804;52.350;6.684;2023-06-26T00:10:02;24.48;-6.00
19340;HTU21D;9804;52.350;6.684;2023-06-26T00:12:28;24.46;-6.00
19340;HTU21D;9804;52.350;6.684;2023-06-26T00:14:54;24.53;-6.00
19340;HTU21D;9804;52.350;6.684;2023-06-26T00:17:20;24.40;-6.00
19340;HTU21D;9804;52.350;6.684;2023-06-26T00:19:46;24.35;-6.00
19340;HTU21D;9804;52.350;6.684;2023-06-26T00:22:12;24.33;-6.00
19340;HTU21D;9804;52.350;6.684;2023-06-26T00:24:37;24.31;-6.00
19340;HTU21D;9804;52.350;6.684;2023-06-26T00:27:02;24.29;-6.00
19340;HTU21D;9804;52.350;6.684;2023-06-26T00:29:28;24.24;-6.00
19340;HTU21D;9804;52.350;6.684;2023-06-26T00:31:53;24.23;-6.00
19340;HTU21D;9804;52.350;6.684;2023-06-26T00:34:19;24.15;-6.00
19340;HTU21D;9804;52.350;6.684;2023-06-26T00:36:44;24.13;-6.00
19340;HTU21D;9804;52.350;6.684;2023-06-26T00:39:10;24.21;-6.00
19340;HTU21D;9804;52.350;6.684;2023-06-26T00:41:36;24.21;-6.00
19340;HTU21D;9804;52.350;6.684;2023-06-26T00:44:02;24.21;-6.00
19340;HTU21D;9804;52.350;6.684;2023-06-26T00:46:28;24.33;-6.00
19340;HTU21D;9804;52.350;6.684;2023-06-26T00:48:54;24.18;-6.00
19340;HTU21D;9804;52.350;6.684;2023-06-26T00:51:20;24.09;-6.00
19340;HTU21D;9804;52.350;6.684;2023-06-26T00:53:45;24.14;-6.00
19340;HTU21D;9804;52.350;6.684;2023-06-26T00:56:11;24.18;-6.00
19340;HTU21D;9804;52.350;6.684;2023-06-26T00:58:37;24.11;-6.00
19340;HTU21D;9804;52.350;6.684;2023-06-26T01:01:02;24.15;-6.00
19340;HTU21D;9804;52.350;6.684;2023-06-26T01:03:28;24.14;-6.00
19340;HTU21D;9804;52.350;6.684;2023-06-26T01:05:56;24.29;-6.00
19340;HTU21D;9804;52.350;6.684;2023-06-26T01:08:22;24.38;-6.00
19340;HTU21D;9804;52.350;6.684;2023-06-26T01:10:47;24.21;-6.00
19340;HTU21D;9804;52.350;6.684;2023-06-26T01:13:14;24.21;-6.00
19340;HTU21D;9804;52.350;6.684;2023-06-26T01:15:40;24.28;-6.00
19340;HTU21D;9804;52.350;6.684;2023-06-26T01:18:06;24.23;-6.00
19340;HTU21D;9804;52.350;6.684;2023-06-26T01:20:32;24.30;-6.00
19340;HTU21D;9804;52.350;6.684;2023-06-26T01:23:17;24.34;-6.00
19340;HTU21D;9804;52.350;6.684;2023-06-26T01:28:20;24.16;-6.00
19340;HTU21D;9804;52.350;6.684;2023-06-26T01:30:46;24.26;-6.00
19340;HTU21D;9804;52.350;6.684;2023-06-26T01:33:12;24.31;-6.00
19340;HTU21D;9804;52.350;6.684;2023-06-26T01:35:39;24.45;-6.00
19340;HTU21D;9804;52.350;6.684;2023-06-26T01:38:15;24.51;-6.00
19340;HTU21D;9804;52.350;6.684;2023-06-26T01:40:41;24.55;-6.00
19340;HTU21D;9804;52.350;6.684;2023-06-26T01:45:59;24.62;-6.00
19340;HTU21D;9804;52.350;6.684;2023-06-26T01:48:30;24.61;-6.00
19340;HTU21D;9804;52.350;6.684;2023-06-26T01:50:58;24.61;-6.00
19340;HTU21D;9804;52.350;6.684;2023-06-26T01:53:25;24.58;-6.00
19340;HTU21D;9804;52.350;6.684;2023-06-26T01:56:08;24.60;-6.00
19340;HTU21D;9804;52.350;6.684;2023-06-26T01:58:43;24.62;-6.00
19340;HTU21D;9804;52.350;6.684;2023-06-26T02:01:09;24.66;-6.00
19340;HTU21D;9804;52.350;6.684;2023-06-26T02:03:34;24.63;-6.00
19340;HTU21D;9804;52.350;6.684;2023-06-26T02:06:00;24.73;-6.00
19340;HTU21D;9804;52.350;6.684;2023-06-26T02:08:25;24.69;-6.00
19340;HTU21D;9804;52.350;6.684;2023-06-26T02:10:51;24.69;-6.00
19340;HTU21D;9804;52.350;6.684;2023-06-26T02:13:16;24.61;-6.00
19340;HTU21D;9804;52.350;6.684;2023-06-26T02:15:41;24.57;-6.00
19340;HTU21D;9804;52.350;6.684;2023-06-26T02:18:07;24.53;-6.00
19340;HTU21D;9804;52.350;6.684;2023-06-26T02:20:32;24.54;-6.00
19340;HTU21D;9804;52.350;6.684;2023-06-26T02:22:58;24.59;-6.00
19340;HTU21D;9804;52.350;6.684;2023-06-26T02:25:24;24.61;-6.00
19340;HTU21D;9804;52.350;6.684;2023-06-26T02:27:49;24.66;-6.00
19340;HTU21D;9804;52.350;6.684;2023-06-26T02:30:14;24.59;-6.00
19340;HTU21D;9804;52.350;6.684;2023-06-26T02:32:40;24.58;-6.00
19340;HTU21D;9804;52.350;6.684;2023-06-26T02:35:06;24.61;-6.00
19340;HTU21D;9804;52.350;6.684;2023-06-26T02:37:31;24.51;-6.00
19340;HTU21D;9804;52.350;6.684;2023-06-26T02:39:56;24.32;-6.00
19340;HTU21D;9804;52.350;6.684;2023-06-26T02:42:22;24.41;-6.00
19340;HTU21D;9804;52.350;6.684;2023-06-26T02:44:47;24.47;-6.00
19340;HTU21D;9804;52.350;6.684;2023-06-26T02:47:13;24.44;-6.00
19340;HTU21D;9804;52.350;6.684;2023-06-26T02:49:38;24.38;-6.00
19340;HTU21D;9804;52.350;6.684;2023-06-26T02:52:04;24.40;-6.00
19340;HTU21D;9804;52.350;6.684;2023-06-26T02:54:29;24.49;-6.00
19340;HTU21D;9804;52.350;6.684;2023-06-26T02:56:54;24.48;-6.00
19340;HTU21D;9804;52.350;6.684;2023-06-26T02:59:20;24.44;-6.00
19340;HTU21D;9804;52.350;6.684;2023-06-26T03:01:45;24.36;-6.00
19340;HTU21D;9804;52.350;6.684;2023-06-26T03:04:10;24.40;-6.00
19340;HTU21D;9804;52.350;6.684;2023-06-26T03:06:36;24.33;-6.00
19340;HTU21D;9804;52.350;6.684;2023-06-26T03:09:02;24.24;-6.00
19340;HTU21D;9804;52.350;6.684;2023-06-26T03:11:30;24.17;-6.00
19340;HTU21D;9804;52.350;6.684;2023-06-26T03:13:55;24.18;-6.00
19340;HTU21D;9804;52.350;6.684;2023-06-26T03:16:21;24.33;-6.00
19340;HTU21D;9804;52.350;6.684;2023-06-26T03:18:46;24.34;-6.00
19340;HTU21D;9804;52.350;6.684;2023-06-26T03:21:11;24.31;-6.00
19340;HTU21D;9804;52.350;6.684;2023-06-26T03:23:37;24.42;-6.00
19340;HTU21D;9804;52.350;6.684;2023-06-26T03:26:02;24.32;-6.00
19340;HTU21D;9804;52.350;6.684;2023-06-26T03:28:27;24.27;-6.00
19340;HTU21D;9804;52.350;6.684;2023-06-26T03:30:53;24.20;-6.00
19340;HTU21D;9804;52.350;6.684;2023-06-26T03:33:18;24.03;-6.00
19340;HTU21D;9804;52.350;6.684;2023-06-26T03:35:44;24.10;-6.00
19340;HTU21D;9804;52.350;6.684;2023-06-26T03:38:09;24.08;-6.00
19340;HTU21D;9804;52.350;6.684;2023-06-26T03:40:35;24.04;-6.00
19340;HTU21D;9804;52.350;6.684;2023-06-26T03:43:00;23.99;-6.00
19340;HTU21D;9804;52.350;6.684;2023-06-26T03:45:25;24.04;-6.00
19340;HTU21D;9804;52.350;6.684;2023-06-26T03:47:51;24.16;-6.00
19340;HTU21D;9804;52.350;6.684;2023-06-26T03:50:16;24.19;-6.00
19340;HTU21D;9804;52.350;6.684;2023-06-26T03:52:42;24.23;-6.00
19340;HTU21D;9804;52.350;6.684;2023-06-26T03:55:07;24.16;-6.00
19340;HTU21D;9804;52.350;6.684;2023-06-26T03:57:33;24.23;-6.00
19340;HTU21D;9804;52.350;6.684;2023-06-26T03:59:58;24.11;-6.00
19340;HTU21D;9804;52.350;6.684;2023-06-26T04:02:24;24.36;-6.00
19340;HTU21D;9804;52.350;6.684;2023-06-26T04:04:49;24.15;-6.00
19340;HTU21D;9804;52.350;6.684;2023-06-26T04:07:15;24.25;-6.00
19340;HTU21D;9804;52.350;6.684;2023-06-26T04:09:40;24.41;-6.00
19340;HTU21D;9804;52.350;6.684;2023-06-26T04:12:06;24.44;-6.00
19340;HTU21D;9804;52.350;6.684;2023-06-26T04:14:31;24.30;-6.00
19340;HTU21D;9804;52.350;6.684;2023-06-26T04:16:56;24.44;-6.00
19340;HTU21D;9804;52.350;6.684;2023-06-26T04:19:23;24.88;-6.00
19340;HTU21D;9804;52.350;6.684;2023-06-26T04:21:48;24.87;-6.00
19340;HTU21D;9804;52.350;6.684;2023-06-26T04:24:13;24.69;-6.00
19340;HTU21D;9804;52.350;6.684;2023-06-26T04:26:39;24.74;-6.00
19340;HTU21D;9804;52.350;6.684;2023-06-26T04:29:06;24.99;-6.00
19340;HTU21D;9804;52.350;6.684;2023-06-26T04:31:32;25.36;-6.00
19340;HTU21D;9804;52.350;6.684;2023-06-26T04:33:57;25.58;-6.00
19340;HTU21D;9804;52.350;6.684;2023-06-26T04:36:24;25.68;-6.00
19340;HTU21D;9804;52.350;6.684;2023-06-26T04:38:54;25.68;-6.00
19340;HTU21D;9804;52.350;6.684;2023-06-26T04:41:19;25.24;-6.00
19340;HTU21D;9804;52.350;6.684;2023-06-26T04:43:44;25.38;-6.00
19340;HTU21D;9804;52.350;6.684;2023-06-26T04:46:10;25.94;-6.00
19340;HTU21D;9804;52.350;6.684;2023-06-26T04:48:35;25.78;-6.00
19340;HTU21D;9804;52.350;6.684;2023-06-26T04:51:00;25.65;-6.00
19340;HTU21D;9804;52.350;6.684;2023-06-26T04:53:26;25.80;-6.00
19340;HTU21D;9804;52.350;6.684;2023-06-26T04:55:52;25.87;-6.00
19340;HTU21D;9804;52.350;6.684;2023-06-26T04:58:18;25.82;-6.00
19340;HTU21D;9804;52.350;6.684;2023-06-26T05:00:44;25.68;-6.00
19340;HTU21D;9804;52.350;6.684;2023-06-26T05:03:11;25.72;-6.00
19340;HTU21D;9804;52.350;6.684;2023-06-26T05:05:37;25.87;-6.00
19340;HTU21D;9804;52.350;6.684;2023-06-26T05:08:16;25.75;-6.00
19340;HTU21D;9804;52.350;6.684;2023-06-26T05:10:42;25.68;-6.00
19340;HTU21D;9804;52.350;6.684;2023-06-26T05:13:07;25.37;-6.00
19340;HTU21D;9804;52.350;6.684;2023-06-26T05:15:32;25.25;-6.00
19340;HTU21D;9804;52.350;6.684;2023-06-26T05:17:58;24.49;-6.00
19340;HTU21D;9804;52.350;6.684;2023-06-26T05:20:23;24.57;-6.00
19340;HTU21D;9804;52.350;6.684;2023-06-26T05:22:49;24.30;-6.00
19340;HTU21D;9804;52.350;6.684;2023-06-26T05:25:15;24.25;-6.00
19340;HTU21D;9804;52.350;6.684;2023-06-26T05:27:41;24.36;-6.00
19340;HTU21D;9804;52.350;6.684;2023-06-26T05:30:07;24.33;-6.00
19340;HTU21D;9804;52.350;6.684;2023-06-26T05:32:34;24.71;-6.00
19340;HTU21D;9804;52.350;6.684;2023-06-26T05:35:02;24.65;-6.00
19340;HTU21D;9804;52.350;6.684;2023-06-26T05:37:29;24.86;-6.00
19340;HTU21D;9804;52.350;6.684;2023-06-26T05:39:54;24.99;-6.00
19340;HTU21D;9804;52.350;6.684;2023-06-26T05:42:20;25.07;-6.00
19340;HTU21D;9804;52.350;6.684;2023-06-26T05:44:45;24.95;-6.00
19340;HTU21D;9804;52.350;6.684;2023-06-26T05:47:11;24.72;-6.00
19340;HTU21D;9804;52.350;6.684;2023-06-26T05:49:36;24.66;-6.00
19340;HTU21D;9804;52.350;6.684;2023-06-26T05:52:02;24.70;-6.00
19340;HTU21D;9804;52.350;6.684;2023-06-26T05:54:27;24.30;-6.00
19340;HTU21D;9804;52.350;6.684;2023-06-26T05:56:56;24.56;-6.00
19340;HTU21D;9804;52.350;6.684;2023-06-26T05:59:24;24.60;-6.00
19340;HTU21D;9804;52.350;6.684;2023-06-26T06:01:51;24.30;-6.00
19340;HTU21D;9804;52.350;6.684;2023-06-26T06:04:17;24.25;-6.00
19340;HTU21D;9804;52.350;6.684;2023-06-26T06:06:42;24.45;-6.00
19340;HTU21D;9804;52.350;6.684;2023-06-26T06:09:07;24.40;-6.00
19340;HTU21D;9804;52.350;6.684;2023-06-26T06:11:33;24.69;-6.00
19340;HTU21D;9804;52.350;6.684;2023-06-26T06:13:58;24.69;-6.00
19340;HTU21D;9804;52.350;6.684;2023-06-26T06:16:25;24.58;-6.00
19340;HTU21D;9804;52.350;6.684;2023-06-26T06:18:50;24.56;-6.00
19340;HTU21D;9804;52.350;6.684;2023-06-26T06:21:16;24.80;-6.00
19340;HTU21D;9804;52.350;6.684;2023-06-26T06:23:41;24.80;-6.00
19340;HTU21D;9804;52.350;6.684;2023-06-26T06:26:06;24.47;-6.00
19340;HTU21D;9804;52.350;6.684;2023-06-26T06:28:32;24.58;-6.00
19340;HTU21D;9804;52.350;6.684;2023-06-26T06:30:57;24.87;-6.00
19340;HTU21D;9804;52.350;6.684;2023-06-26T06:33:22;24.47;-6.00
19340;HTU21D;9804;52.350;6.684;2023-06-26T06:35:48;24.71;-6.00
19340;HTU21D;9804;52.350;6.684;2023-06-26T06:38:13;24.38;-6.00
19340;HTU21D;9804;52.350;6.684;2023-06-26T06:40:39;24.31;-6.00
19340;HTU21D;9804;52.350;6.684;2023-06-26T06:43:04;24.45;-6.00
19340;HTU21D;9804;52.350;6.684;2023-06-26T06:45:29;24.80;-6.00
19340;HTU21D;9804;52.350;6.684;2023-06-26T06:47:55;24.89;-6.00
19340;HTU21D;9804;52.350;6.684;2023-06-26T06:50:20;24.56;-6.00
19340;HTU21D;9804;52.350;6.684;2023-06-26T06:52:46;24.74;-6.00
19340;HTU21D;9804;52.350;6.684;2023-06-26T06:55:11;24.69;-6.00
19340;HTU21D;9804;52.350;6.684;2023-06-26T06:57:39;24.28;-6.00
19340;HTU21D;9804;52.350;6.684;2023-06-26T07:00:07;24.92;-6.00
19340;HTU21D;9804;52.350;6.684;2023-06-26T07:02:45;24.71;-6.00
19340;HTU21D;9804;52.350;6.684;2023-06-26T07:05:11;25.08;-6.00
19340;HTU21D;9804;52.350;6.684;2023-06-26T07:07:37;24.84;-6.00
19340;HTU21D;9804;52.350;6.684;2023-06-26T07:10:08;25.13;-6.00
19340;HTU21D;9804;52.350;6.684;2023-06-26T07:12:34;24.51;-6.00
19340;HTU21D;9804;52.350;6.684;2023-06-26T07:15:01;24.44;-6.00
19340;HTU21D;9804;52.350;6.684;2023-06-26T07:17:27;24.73;-6.00
19340;HTU21D;9804;52.350;6.684;2023-06-26T07:19:53;24.74;-6.00
19340;HTU21D;9804;52.350;6.684;2023-06-26T07:22:18;24.45;-6.00
19340;HTU21D;9804;52.350;6.684;2023-06-26T07:24:47;24.36;-6.00
19340;HTU21D;9804;52.350;6.684;2023-06-26T07:27:16;24.61;-6.00
19340;HTU21D;9804;52.350;6.684;2023-06-26T07:29:43;25.09;-6.00
19340;HTU21D;9804;52.350;6.684;2023-06-26T07:32:08;25.02;-6.00
19340;HTU21D;9804;52.350;6.684;2023-06-26T07:34:34;25.09;-6.00
19340;HTU21D;9804;52.350;6.684;2023-06-26T07:36:59;24.71;-6.00
19340;HTU21D;9804;52.350;6.684;2023-06-26T07:39:25;24.61;-6.00
19340;HTU21D;9804;52.350;6.684;2023-06-26T07:41:51;24.77;-6.00
19340;HTU21D;9804;52.350;6.684;2023-06-26T07:44:16;24.89;-6.00
19340;HTU21D;9804;52.350;6.684;2023-06-26T07:46:41;24.87;-6.00
19340;HTU21D;9804;52.350;6.684;2023-06-26T07:49:07;25.04;-6.00
19340;HTU21D;9804;52.350;6.684;2023-06-26T07:51:32;25.20;-6.00
19340;HTU21D;9804;52.350;6.684;2023-06-26T07:53:57;25.08;-6.00
19340;HTU21D;9804;52.350;6.684;2023-06-26T07:56:23;25.37;-6.00
19340;HTU21D;9804;52.350;6.684;2023-06-26T07:58:48;24.92;-6.00
19340;HTU21D;9804;52.350;6.684;2023-06-26T08:01:13;24.97;-6.00
19340;HTU21D;9804;52.350;6.684;2023-06-26T08:03:39;24.73;-6.00
19340;HTU21D;9804;52.350;6.684;2023-06-26T08:06:05;25.31;-6.00
19340;HTU21D;9804;52.350;6.684;2023-06-26T08:08:30;25.44;-6.00
19340;HTU21D;9804;52.350;6.684;2023-06-26T08:10:56;25.34;-6.00
19340;HTU21D;9804;52.350;6.684;2023-06-26T08:13:21;25.58;-6.00
19340;HTU21D;9804;52.350;6.684;2023-06-26T08:15:47;25.62;-6.00
19340;HTU21D;9804;52.350;6.684;2023-06-26T08:18:12;25.54;-6.00
19340;HTU21D;9804;52.350;6.684;2023-06-26T08:20:37;25.33;-6.00
19340;HTU21D;9804;52.350;6.684;2023-06-26T08:23:04;25.40;-6.00
19340;HTU21D;9804;52.350;6.684;2023-06-26T08:25:29;25.64;-6.00
19340;HTU21D;9804;52.350;6.684;2023-06-26T08:27:55;25.73;-6.00
19340;HTU21D;9804;52.350;6.684;2023-06-26T08:30:21;25.45;-6.00
19340;HTU21D;9804;52.350;6.684;2023-06-26T08:32:46;25.81;-6.00
19340;HTU21D;9804;52.350;6.684;2023-06-26T08:35:11;25.88;-6.00
19340;HTU21D;9804;52.350;6.684;2023-06-26T08:37:37;26.08;-6.00
19340;HTU21D;9804;52.350;6.684;2023-06-26T08:40:03;25.30;-6.00
19340;HTU21D;9804;52.350;6.684;2023-06-26T08:42:29;25.63;-6.00
19340;HTU21D;9804;52.350;6.684;2023-06-26T08:44:54;25.27;-6.00
19340;HTU21D;9804;52.350;6.684;2023-06-26T08:47:21;25.31;-6.00
19340;HTU21D;9804;52.350;6.684;2023-06-26T08:49:51;25.60;-6.00
19340;HTU21D;9804;52.350;6.684;2023-06-26T08:52:24;25.56;-6.00
19340;HTU21D;9804;52.350;6.684;2023-06-26T08:54:58;25.33;-6.00
19340;HTU21D;9804;52.350;6.684;2023-06-26T08:57:25;25.38;-6.00
19340;HTU21D;9804;52.350;6.684;2023-06-26T08:59:51;26.05;-6.00
19340;HTU21D;9804;52.350;6.684;2023-06-26T09:02:17;25.94;-6.00
19340;HTU21D;9804;52.350;6.684;2023-06-26T09:04:42;26.03;-6.00
19340;HTU21D;9804;52.350;6.684;2023-06-26T09:07:08;26.15;-6.00
19340;HTU21D;9804;52.350;6.684;2023-06-26T09:09:33;26.03;-6.00
19340;HTU21D;9804;52.350;6.684;2023-06-26T09:12:01;25.96;-6.00
19340;HTU21D;9804;52.350;6.684;2023-06-26T09:14:27;25.78;-6.00
19340;HTU21D;9804;52.350;6.684;2023-06-26T09:16:53;25.53;-6.00
19340;HTU21D;9804;52.350;6.684;2023-06-26T09:19:19;25.48;-6.00
19340;HTU21D;9804;52.350;6.684;2023-06-26T09:21:44;25.74;-6.00
19340;HTU21D;9804;52.350;6.684;2023-06-26T09:24:10;25.98;-6.00
19340;HTU21D;9804;52.350;6.684;2023-06-26T09:26:37;26.41;-6.00
19340;HTU21D;9804;52.350;6.684;2023-06-26T09:29:04;25.97;-6.00
19340;HTU21D;9804;52.350;6.684;2023-06-26T09:31:30;26.01;-6.00
19340;HTU21D;9804;52.350;6.684;2023-06-26T09:33:59;26.37;-6.00
19340;HTU21D;9804;52.350;6.684;2023-06-26T09:36:28;26.66;-6.00
19340;HTU21D;9804;52.350;6.684;2023-06-26T09:38:53;26.03;-6.00
19340;HTU21D;9804;52.350;6.684;2023-06-26T09:41:19;26.38;-6.00
19340;HTU21D;9804;52.350;6.684;2023-06-26T09:43:51;26.62;-6.00
19340;HTU21D;9804;52.350;6.684;2023-06-26T09:46:26;26.57;-6.00
19340;HTU21D;9804;52.350;6.684;2023-06-26T09:49:05;26.48;-6.00
19340;HTU21D;9804;52.350;6.684;2023-06-26T09:51:34;26.83;-6.00
19340;HTU21D;9804;52.350;6.684;2023-06-26T09:54:01;26.27;-6.00
19340;HTU21D;9804;52.350;6.684;2023-06-26T09:56:28;26.26;-6.00
19340;HTU21D;9804;52.350;6.684;2023-06-26T09:58:57;25.84;-6.00
19340;HTU21D;9804;52.350;6.684;2023-06-26T10:01:24;25.59;-6.00
19340;HTU21D;9804;52.350;6.684;2023-06-26T10:03:50;26.10;-6.00
19340;HTU21D;9804;52.350;6.684;2023-06-26T10:06:19;25.66;-6.00
19340;HTU21D;9804;52.350;6.684;2023-06-26T10:08:45;26.34;-6.00
19340;HTU21D;9804;52.350;6.684;2023-06-26T10:11:15;26.58;-6.00
19340;HTU21D;9804;52.350;6.684;2023-06-26T10:13:43;26.19;-6.00
19340;HTU21D;9804;52.350;6.684;2023-06-26T10:16:11;26.99;-6.00
19340;HTU21D;9804;52.350;6.684;2023-06-26T10:18:38;27.11;-6.00
19340;HTU21D;9804;52.350;6.684;2023-06-26T10:21:05;27.26;-6.00
19340;HTU21D;9804;52.350;6.684;2023-06-26T10:23:31;26.71;-6.00
19340;HTU21D;9804;52.350;6.684;2023-06-26T10:25:59;27.13;-6.00
19340;HTU21D;9804;52.350;6.684;2023-06-26T10:28:27;27.44;-6.00
19340;HTU21D;9804;52.350;6.684;2023-06-26T10:30:53;26.94;-6.00
19340;HTU21D;9804;52.350;6.684;2023-06-26T10:33:20;26.79;-6.00
19340;HTU21D;9804;52.350;6.684;2023-06-26T10:35:45;26.07;-6.00
19340;HTU21D;9804;52.350;6.684;2023-06-26T10:38:11;25.21;-6.00
19340;HTU21D;9804;52.350;6.684;2023-06-26T10:40:47;25.07;-6.00
19340;HTU21D;9804;52.350;6.684;2023-06-26T10:43:16;25.28;-6.00
19340;HTU21D;9804;52.350;6.684;2023-06-26T10:45:49;26.07;-6.00
19340;HTU21D;9804;52.350;6.684;2023-06-26T10:48:19;26.52;-6.00
19340;HTU21D;9804;52.350;6.684;2023-06-26T10:50:49;26.38;-6.00
19340;HTU21D;9804;52.350;6.684;2023-06-26T10:56:10;26.07;-6.00
19340;HTU21D;9804;52.350;6.684;2023-06-26T11:01:26;27.00;-6.00
19340;HTU21D;9804;52.350;6.684;2023-06-26T11:06:22;26.21;-6.00
19340;HTU21D;9804;52.350;6.684;2023-06-26T11:08:48;26.64;-6.00
19340;HTU21D;9804;52.350;6.684;2023-06-26T11:11:15;26.28;-6.00
19340;HTU21D;9804;52.350;6.684;2023-06-26T11:13:41;25.87;-6.00
19340;HTU21D;9804;52.350;6.684;2023-06-26T11:16:07;26.17;-6.00
19340;HTU21D;9804;52.350;6.684;2023-06-26T11:18:33;26.31;-6.00
19340;HTU21D;9804;52.350;6.684;2023-06-26T11:21:11;26.02;-6.00
19340;HTU21D;9804;52.350;6.684;2023-06-26T11:23:39;26.37;-6.00
19340;HTU21D;9804;52.350;6.684;2023-06-26T11:28:46;25.86;-6.00
19340;HTU21D;9804;52.350;6.684;2023-06-26T11:31:26;26.02;-6.00
19340;HTU21D;9804;52.350;6.684;2023-06-26T11:33:53;25.87;-6.00
19340;HTU21D;9804;52.350;6.684;2023-06-26T11:36:19;25.94;-6.00
19340;HTU21D;9804;52.350;6.684;2023-06-26T11:38:45;25.80;-6.00
19340;HTU21D;9804;52.350;6.684;2023-06-26T11:41:10;25.92;-6.00
19340;HTU21D;9804;52.350;6.684;2023-06-26T11:43:36;26.69;-6.00
19340;HTU21D;9804;52.350;6.684;2023-06-26T11:46:01;27.37;-6.00
19340;HTU21D;9804;52.350;6.684;2023-06-26T11:48:27;27.32;-6.00
19340;HTU21D;9804;52.350;6.684;2023-06-26T11:50:54;26.06;-6.00
19340;HTU21D;9804;52.350;6.684;2023-06-26T11:53:19;26.07;-6.00
19340;HTU21D;9804;52.350;6.684;2023-06-26T11:55:45;25.56;-6.00
19340;HTU21D;9804;52.350;6.684;2023-06-26T11:58:10;25.67;-6.00
19340;HTU21D;9804;52.350;6.684;2023-06-26T12:00:41;26.03;-6.00
19340;HTU21D;9804;52.350;6.684;2023-06-26T12:03:06;26.41;-6.00
19340;HTU21D;9804;52.350;6.684;2023-06-26T12:05:32;26.60;-6.00
19340;HTU21D;9804;52.350;6.684;2023-06-26T12:07:57;26.64;-6.00
19340;HTU21D;9804;52.350;6.684;2023-06-26T12:10:24;27.11;-6.00
19340;HTU21D;9804;52.350;6.684;2023-06-26T12:12:50;27.30;-6.00
19340;HTU21D;9804;52.350;6.684;2023-06-26T12:15:16;26.86;-6.00
19340;HTU21D;9804;52.350;6.684;2023-06-26T12:17:41;27.17;-6.00
19340;HTU21D;9804;52.350;6.684;2023-06-26T12:20:18;27.16;-6.00
19340;HTU21D;9804;52.350;6.684;2023-06-26T12:22:46;26.66;-6.00
19340;HTU21D;9804;52.350;6.684;2023-06-26T12:25:11;26.41;-6.00
19340;HTU21D;9804;52.350;6.684;2023-06-26T12:27:37;26.01;-6.00
19340;HTU21D;9804;52.350;6.684;2023-06-26T12:30:03;26.06;-6.00
19340;HTU21D;9804;52.350;6.684;2023-06-26T12:32:29;26.19;-6.00
19340;HTU21D;9804;52.350;6.684;2023-06-26T12:34:56;26.80;-6.00
19340;HTU21D;9804;52.350;6.684;2023-06-26T12:37:21;26.70;-6.00
19340;HTU21D;9804;52.350;6.684;2023-06-26T12:39:55;27.07;-6.00
19340;HTU21D;9804;52.350;6.684;2023-06-26T12:42:28;26.83;-6.00
19340;HTU21D;9804;52.350;6.684;2023-06-26T12:44:54;26.75;-6.00
19340;HTU21D;9804;52.350;6.684;2023-06-26T12:47:26;26.49;-6.00
19340;HTU21D;9804;52.350;6.684;2023-06-26T12:49:53;26.98;-6.00
19340;HTU21D;9804;52.350;6.684;2023-06-26T12:52:19;27.47;-6.00
19340;HTU21D;9804;52.350;6.684;2023-06-26T12:54:45;27.36;-6.00
19340;HTU21D;9804;52.350;6.684;2023-06-26T12:57:12;27.66;-6.00
19340;HTU21D;9804;52.350;6.684;2023-06-26T12:59:39;28.10;-6.00
19340;HTU21D;9804;52.350;6.684;2023-06-26T13:02:06;26.70;-6.00
19340;HTU21D;9804;52.350;6.684;2023-06-26T13:04:32;26.82;-6.00
19340;HTU21D;9804;52.350;6.684;2023-06-26T13:06:58;26.93;-6.00
19340;HTU21D;9804;52.350;6.684;2023-06-26T13:09:24;26.33;-6.00
19340;HTU21D;9804;52.350;6.684;2023-06-26T13:11:53;26.32;-6.00
19340;HTU21D;9804;52.350;6.684;2023-06-26T13:14:19;26.31;-6.00
19340;HTU21D;9804;52.350;6.684;2023-06-26T13:16:44;27.07;-6.00
19340;HTU21D;9804;52.350;6.684;2023-06-26T13:19:10;26.92;-6.00
19340;HTU21D;9804;52.350;6.684;2023-06-26T13:21:35;26.75;-6.00
19340;HTU21D;9804;52.350;6.684;2023-06-26T13:24:01;27.12;-6.00
19340;HTU21D;9804;52.350;6.684;2023-06-26T13:26:28;28.14;-6.00
19340;HTU21D;9804;52.350;6.684;2023-06-26T13:28:54;28.16;-6.00
19340;HTU21D;9804;52.350;6.684;2023-06-26T13:31:20;27.30;-6.00
19340;HTU21D;9804;52.350;6.684;2023-06-26T13:33:46;27.27;-6.00
19340;HTU21D;9804;52.350;6.684;2023-06-26T13:36:14;27.51;-6.00
19340;HTU21D;9804;52.350;6.684;2023-06-26T13:38:39;27.20;-6.00
19340;HTU21D;9804;52.350;6.684;2023-06-26T13:41:04;27.29;-6.00
19340;HTU21D;9804;52.350;6.684;2023-06-26T13:43:30;27.75;-6.00
19340;HTU21D;9804;52.350;6.684;2023-06-26T13:45:55;26.55;-6.00
19340;HTU21D;9804;52.350;6.684;2023-06-26T13:48:21;26.08;-6.00
19340;HTU21D;9804;52.350;6.684;2023-06-26T13:50:49;26.86;-6.00
19340;HTU21D;9804;52.350;6.684;2023-06-26T13:53:15;27.15;-6.00
19340;HTU21D;9804;52.350;6.684;2023-06-26T13:55:41;26.93;-6.00
19340;HTU21D;9804;52.350;6.684;2023-06-26T13:58:09;27.13;-6.00
19340;HTU21D;9804;52.350;6.684;2023-06-26T14:00:35;26.95;-6.00
19340;HTU21D;9804;52.350;6.684;2023-06-26T14:03:02;26.11;-6.00
19340;HTU21D;9804;52.350;6.684;2023-06-26T14:05:29;25.75;-6.00
19340;HTU21D;9804;52.350;6.684;2023-06-26T14:07:54;25.90;-6.00
19340;HTU21D;9804;52.350;6.684;2023-06-26T14:10:20;26.30;-6.00
19340;HTU21D;9804;52.350;6.684;2023-06-26T14:12:46;26.54;-6.00
19340;HTU21D;9804;52.350;6.684;2023-06-26T14:15:12;26.51;-6.00
19340;HTU21D;9804;52.350;6.684;2023-06-26T14:17:37;26.39;-6.00
19340;HTU21D;9804;52.350;6.684;2023-06-26T14:20:06;26.23;-6.00
19340;HTU21D;9804;52.350;6.684;2023-06-26T14:22:34;25.91;-6.00
19340;HTU21D;9804;52.350;6.684;2023-06-26T14:24:59;26.73;-6.00
19340;HTU21D;9804;52.350;6.684;2023-06-26T14:27:24;27.43;-6.00
19340;HTU21D;9804;52.350;6.684;2023-06-26T14:29:50;26.86;-6.00
19340;HTU21D;9804;52.350;6.684;2023-06-26T14:32:15;26.50;-6.00
19340;HTU21D;9804;52.350;6.684;2023-06-26T14:34:40;26.42;-6.00
19340;HTU21D;9804;52.350;6.684;2023-06-26T14:37:06;26.22;-6.00
19340;HTU21D;9804;52.350;6.684;2023-06-26T14:39:31;26.30;-6.00
19340;HTU21D;9804;52.350;6.684;2023-06-26T14:41:56;26.72;-6.00
19340;HTU21D;9804;52.350;6.684;2023-06-26T14:44:22;27.14;-6.00
19340;HTU21D;9804;52.350;6.684;2023-06-26T14:46:47;26.80;-6.00
19340;HTU21D;9804;52.350;6.684;2023-06-26T14:49:13;26.58;-6.00
19340;HTU21D;9804;52.350;6.684;2023-06-26T14:51:38;26.57;-6.00
19340;HTU21D;9804;52.350;6.684;2023-06-26T14:54:05;26.77;-6.00
19340;HTU21D;9804;52.350;6.684;2023-06-26T14:56:31;27.21;-6.00
19340;HTU21D;9804;52.350;6.684;2023-06-26T14:58:56;26.73;-6.00
19340;HTU21D;9804;52.350;6.684;2023-06-26T15:01:21;26.66;-6.00
19340;HTU21D;9804;52.350;6.684;2023-06-26T15:03:47;26.61;-6.00
19340;HTU21D;9804;52.350;6.684;2023-06-26T15:06:12;26.18;-6.00
19340;HTU21D;9804;52.350;6.684;2023-06-26T15:08:38;25.89;-6.00
19340;HTU21D;9804;52.350;6.684;2023-06-26T15:11:03;26.30;-6.00
19340;HTU21D;9804;52.350;6.684;2023-06-26T15:13:29;26.39;-6.00
19340;HTU21D;9804;52.350;6.684;2023-06-26T15:15:54;27.11;-6.00
19340;HTU21D;9804;52.350;6.684;2023-06-26T15:18:19;27.11;-6.00
19340;HTU21D;9804;52.350;6.684;2023-06-26T15:20:45;27.25;-6.00
19340;HTU21D;9804;52.350;6.684;2023-06-26T15:23:10;27.15;-6.00
19340;HTU21D;9804;52.350;6.684;2023-06-26T15:25:36;27.22;-6.00
19340;HTU21D;9804;52.350;6.684;2023-06-26T15:28:05;26.46;-6.00
19340;HTU21D;9804;52.350;6.684;2023-06-26T15:30:31;26.68;-6.00
19340;HTU21D;9804;52.350;6.684;2023-06-26T15:32:57;27.74;-6.00
19340;HTU21D;9804;52.350;6.684;2023-06-26T15:35:22;27.70;-6.00
19340;HTU21D;9804;52.350;6.684;2023-06-26T15:37:47;27.60;-6.00
19340;HTU21D;9804;52.350;6.684;2023-06-26T15:40:14;27.84;-6.00